sensor_id;sensor_type;location;lat;lon;timestamp;pressure;altitude;pressure_sealevel;temperature;humidity
62057;BME280;48016;50.284;18.860;2022-09-23T00:01:08;98679.95;;;7.91;87.41
62057;BME280;48016;50.284;18.860;2022-09-23T00:03:53;98678.33;;;7.90;87.67
62057;BME280;48016;50.284;18.860;2022-09-23T00:06:38;98672.94;;;7.90;87.60
62057;BME280;48016;50.284;18.860;2022-09-23T00:09:24;98670.25;;;7.90;87.75
62057;BME280;48016;50.284;18.860;2022-09-23T00:12:09;98667.31;;;7.91;87.65
62057;BME280;48016;50.284;18.860;2022-09-23T00:14:54;98666.50;;;7.91;87.73
62057;BME280;48016;50.284;18.860;2022-09-23T00:17:38;98675.17;;;7.93;87.78
62057;BME280;48016;50.284;18.860;2022-09-23T00:20:23;98675.98;;;7.93;87.86
62057;BME280;48016;50.284;18.860;2022-09-23T00:23:08;98672.70;;;7.91;87.58
62057;BME280;48016;50.284;18.860;2022-09-23T00:25:57;98669.79;;;7.93;87.82
62057;BME280;48016;50.284;18.860;2022-09-23T00:28:42;98662.53;;;7.93;87.86
62057;BME280;48016;50.284;18.860;2022-09-23T00:31:27;98658.17;;;7.92;87.85
62057;BME280;48016;50.284;18.860;2022-09-23T00:34:12;98657.60;;;7.90;87.94
62057;BME280;48016;50.284;18.860;2022-09-23T00:36:56;98653.25;;;7.89;87.98
62057;BME280;48016;50.284;18.860;2022-09-23T00:39:41;98660.30;;;7.90;87.92
62057;BME280;48016;50.284;18.860;2022-09-23T00:42:28;98643.55;;;7.88;88.10
62057;BME280;48016;50.284;18.860;2022-09-23T00:45:13;98643.08;;;7.91;88.02
62057;BME280;48016;50.284;18.860;2022-09-23T00:48:01;98643.44;;;7.95;87.96
62057;BME280;48016;50.284;18.860;2022-09-23T00:50:51;98649.42;;;7.97;87.79
62057;BME280;48016;50.284;18.860;2022-09-23T00:53:37;98647.80;;;7.96;87.68
62057;BME280;48016;50.284;18.860;2022-09-23T00:56:23;98646.84;;;7.90;87.61
62057;BME280;48016;50.284;18.860;2022-09-23T00:59:08;98646.69;;;7.85;87.73
62057;BME280;48016;50.284;18.860;2022-09-23T01:01:55;98651.27;;;7.85;87.73
62057;BME280;48016;50.284;18.860;2022-09-23T01:04:41;98648.78;;;7.83;87.80
62057;BME280;48016;50.284;18.860;2022-09-23T01:07:26;98642.59;;;7.83;87.89
62057;BME280;48016;50.284;18.860;2022-09-23T01:10:12;98643.40;;;7.83;87.90
62057;BME280;48016;50.284;18.860;2022-09-23T01:16:07;98650.80;;;7.88;87.99
62057;BME280;48016;50.284;18.860;2022-09-23T01:19:09;98634.65;;;7.88;88.04
62057;BME280;48016;50.284;18.860;2022-09-23T01:22:34;98637.34;;;7.88;88.15
62057;BME280;48016;50.284;18.860;2022-09-23T01:37:48;98629.52;;;7.98;88.27
62057;BME280;48016;50.284;18.860;2022-09-23T01:41:02;98628.48;;;7.99;88.35
62057;BME280;48016;50.284;18.860;2022-09-23T01:52:29;98616.55;;;8.07;88.31
62057;BME280;48016;50.284;18.860;2022-09-23T01:55:21;98625.22;;;8.09;88.21
62057;BME280;48016;50.284;18.860;2022-09-23T01:58:20;98618.55;;;8.11;88.06
62057;BME280;48016;50.284;18.860;2022-09-23T02:01:06;98615.27;;;8.09;88.23
62057;BME280;48016;50.284;18.860;2022-09-23T02:04:00;98623.59;;;8.08;88.16
62057;BME280;48016;50.284;18.860;2022-09-23T02:06:54;98618.20;;;8.08;88.08
62057;BME280;48016;50.284;18.860;2022-09-23T02:09:44;98616.79;;;8.05;88.08
62057;BME280;48016;50.284;18.860;2022-09-23T02:12:33;98622.99;;;8.06;88.10
62057;BME280;48016;50.284;18.860;2022-09-23T02:15:24;98619.48;;;8.05;88.10
62057;BME280;48016;50.284;18.860;2022-09-23T02:18:22;98619.95;;;8.02;88.15
62057;BME280;48016;50.284;18.860;2022-09-23T02:21:08;98619.13;;;8.02;88.15
62057;BME280;48016;50.284;18.860;2022-09-23T02:24:01;98622.04;;;8.00;88.19
62057;BME280;48016;50.284;18.860;2022-09-23T02:26:58;98616.05;;;7.98;88.11
62057;BME280;48016;50.284;18.860;2022-09-23T02:35:59;98619.59;;;7.99;88.44
62057;BME280;48016;50.284;18.860;2022-09-23T02:38:53;98614.56;;;8.02;88.51
62057;BME280;48016;50.284;18.860;2022-09-23T02:42:05;98617.85;;;8.04;88.49
62057;BME280;48016;50.284;18.860;2022-09-23T02:44:53;98619.48;;;8.05;88.51
62057;BME280;48016;50.284;18.860;2022-09-23T02:47:41;98618.67;;;8.05;88.50
62057;BME280;48016;50.284;18.860;2022-09-23T02:50:28;98616.79;;;8.05;88.46
62057;BME280;48016;50.284;18.860;2022-09-23T02:53:15;98614.91;;;8.06;88.53
62057;BME280;48016;50.284;18.860;2022-09-23T02:56:01;98613.28;;;8.05;88.63
62057;BME280;48016;50.284;18.860;2022-09-23T02:58:47;98621.11;;;8.06;88.57
62057;BME280;48016;50.284;18.860;2022-09-23T03:01:58;98618.42;;;8.06;88.58
62057;BME280;48016;50.284;18.860;2022-09-23T03:11:09;98611.54;;;8.10;88.85
62057;BME280;48016;50.284;18.860;2022-09-23T03:18:20;98609.88;;;8.09;88.48
62057;BME280;48016;50.284;18.860;2022-09-23T03:20:47;98611.16;;;8.07;88.48
62057;BME280;48016;50.284;18.860;2022-09-23T03:23:36;98614.09;;;8.05;88.54
62057;BME280;48016;50.284;18.860;2022-09-23T03:26:26;98612.47;;;8.04;88.26
62057;BME280;48016;50.284;18.860;2022-09-23T03:29:13;98610.20;;;8.01;88.36
62057;BME280;48016;50.284;18.860;2022-09-23T03:31:59;98603.44;;;7.99;88.70
62057;BME280;48016;50.284;18.860;2022-09-23T03:34:48;98608.22;;;7.97;88.49
62057;BME280;48016;50.284;18.860;2022-09-23T03:37:41;98606.81;;;7.94;88.50
62057;BME280;48016;50.284;18.860;2022-09-23T03:40:34;98605.39;;;7.91;88.39
62057;BME280;48016;50.284;18.860;2022-09-23T03:43:25;98609.14;;;7.90;88.58
62057;BME280;48016;50.284;18.860;2022-09-23T03:46:09;98607.73;;;7.88;88.50
62057;BME280;48016;50.284;18.860;2022-09-23T03:49:05;98596.61;;;7.84;88.54
62057;BME280;48016;50.284;18.860;2022-09-23T03:51:53;98597.89;;;7.82;88.50
62057;BME280;48016;50.284;18.860;2022-09-23T03:54:38;98605.96;;;7.82;88.51
62057;BME280;48016;50.284;18.860;2022-09-23T03:57:23;98600.80;;;7.80;88.41
62057;BME280;48016;50.284;18.860;2022-09-23T04:00:09;98605.15;;;7.81;88.48
62057;BME280;48016;50.284;18.860;2022-09-23T04:02:54;98600.80;;;7.80;88.64
62057;BME280;48016;50.284;18.860;2022-09-23T04:05:26;98603.48;;;7.80;88.45
62057;BME280;48016;50.284;18.860;2022-09-23T04:07:58;98600.80;;;7.80;88.52
62057;BME280;48016;50.284;18.860;2022-09-23T04:10:29;98599.98;;;7.80;88.37
62057;BME280;48016;50.284;18.860;2022-09-23T04:13:01;98598.34;;;7.79;88.54
62057;BME280;48016;50.284;18.860;2022-09-23T04:15:32;98602.06;;;7.78;88.47
62057;BME280;48016;50.284;18.860;2022-09-23T04:18:04;98598.34;;;7.79;88.30
62057;BME280;48016;50.284;18.860;2022-09-23T04:20:37;98595.66;;;7.79;88.36
62057;BME280;48016;50.284;18.860;2022-09-23T04:23:09;98596.69;;;7.78;88.33
62057;BME280;48016;50.284;18.860;2022-09-23T04:25:48;98598.81;;;7.76;88.19
62057;BME280;48016;50.284;18.860;2022-09-23T04:28:20;98605.82;;;7.77;88.34
62057;BME280;48016;50.284;18.860;2022-09-23T04:30:51;98599.02;;;7.74;88.23
62057;BME280;48016;50.284;18.860;2022-09-23T04:33:22;98611.06;;;7.72;88.09
62057;BME280;48016;50.284;18.860;2022-09-23T04:35:54;98603.45;;;7.68;88.23
62057;BME280;48016;50.284;18.860;2022-09-23T04:38:26;98600.40;;;7.65;88.22
62057;BME280;48016;50.284;18.860;2022-09-23T04:40:57;98598.98;;;7.62;88.27
62057;BME280;48016;50.284;18.860;2022-09-23T04:43:27;98600.86;;;7.62;88.25
62057;BME280;48016;50.284;18.860;2022-09-23T04:46:00;98601.92;;;7.61;88.29
62057;BME280;48016;50.284;18.860;2022-09-23T04:48:34;98596.53;;;7.61;88.25
62057;BME280;48016;50.284;18.860;2022-09-23T04:51:12;98602.48;;;7.63;88.23
62057;BME280;48016;50.284;18.860;2022-09-23T04:53:45;98602.48;;;7.63;88.20
62057;BME280;48016;50.284;18.860;2022-09-23T04:56:22;98602.73;;;7.61;88.22
62057;BME280;48016;50.284;18.860;2022-09-23T04:58:54;98596.30;;;7.62;88.29
62057;BME280;48016;50.284;18.860;2022-09-23T05:01:30;98599.80;;;7.63;88.11
62057;BME280;48016;50.284;18.860;2022-09-23T05:04:07;98607.66;;;7.64;87.98
62057;BME280;48016;50.284;18.860;2022-09-23T05:06:40;98611.98;;;7.65;87.87
62057;BME280;48016;50.284;18.860;2022-09-23T05:09:15;98613.61;;;7.66;87.94
62057;BME280;48016;50.284;18.860;2022-09-23T05:11:44;98604.16;;;7.64;87.99
62057;BME280;48016;50.284;18.860;2022-09-23T05:14:15;98615.73;;;7.64;87.80
62057;BME280;48016;50.284;18.860;2022-09-23T05:16:44;98622.53;;;7.67;87.78
62057;BME280;48016;50.284;18.860;2022-09-23T05:19:13;98623.70;;;7.71;87.81
62057;BME280;48016;50.284;18.860;2022-09-23T05:21:43;98633.80;;;7.76;87.62
62057;BME280;48016;50.284;18.860;2022-09-23T05:24:13;98628.52;;;7.81;87.77
62057;BME280;48016;50.284;18.860;2022-09-23T05:26:41;98618.95;;;7.85;87.71
62057;BME280;48016;50.284;18.860;2022-09-23T05:29:12;98617.58;;;7.94;87.83
62057;BME280;48016;50.284;18.860;2022-09-23T05:31:41;98617.00;;;8.04;87.74
62057;BME280;48016;50.284;18.860;2022-09-23T05:34:11;98623.48;;;8.14;87.63
62057;BME280;48016;50.284;18.860;2022-09-23T05:36:41;98622.08;;;8.24;87.64
62057;BME280;48016;50.284;18.860;2022-09-23T05:39:10;98637.70;;;8.33;87.50
62057;BME280;48016;50.284;18.860;2022-09-23T05:41:40;98632.10;;;8.47;87.56
62057;BME280;48016;50.284;18.860;2022-09-23T05:44:11;98627.09;;;8.62;87.40
62057;BME280;48016;50.284;18.860;2022-09-23T05:46:41;98628.13;;;8.73;87.17
62057;BME280;48016;50.284;18.860;2022-09-23T05:49:10;98637.62;;;8.87;87.04
62057;BME280;48016;50.284;18.860;2022-09-23T05:51:40;98632.47;;;8.97;86.61
62057;BME280;48016;50.284;18.860;2022-09-23T05:54:09;98632.67;;;9.08;86.53
62057;BME280;48016;50.284;18.860;2022-09-23T05:56:39;98627.51;;;9.18;86.32
62057;BME280;48016;50.284;18.860;2022-09-23T05:59:10;98634.28;;;9.32;86.38
62057;BME280;48016;50.284;18.860;2022-09-23T06:01:42;98628.59;;;9.45;85.86
62057;BME280;48016;50.284;18.860;2022-09-23T06:04:14;98632.66;;;9.60;85.61
62057;BME280;48016;50.284;18.860;2022-09-23T06:06:45;98635.74;;;9.80;85.44
62057;BME280;48016;50.284;18.860;2022-09-23T06:09:16;98631.55;;;10.01;85.36
62057;BME280;48016;50.284;18.860;2022-09-23T06:11:45;98628.95;;;10.23;85.03
62057;BME280;48016;50.284;18.860;2022-09-23T06:14:17;98627.28;;;10.51;84.67
62057;BME280;48016;50.284;18.860;2022-09-23T06:16:48;98624.70;;;10.78;83.98
62057;BME280;48016;50.284;18.860;2022-09-23T06:19:20;98630.71;;;11.02;83.50
62057;BME280;48016;50.284;18.860;2022-09-23T06:21:51;98633.22;;;11.25;82.99
62057;BME280;48016;50.284;18.860;2022-09-23T06:24:23;98628.59;;;11.48;82.24
62057;BME280;48016;50.284;18.860;2022-09-23T06:26:54;98633.26;;;11.74;82.01
62057;BME280;48016;50.284;18.860;2022-09-23T06:29:25;98636.73;;;11.92;81.57
62057;BME280;48016;50.284;18.860;2022-09-23T06:31:57;98634.52;;;12.16;81.08
62057;BME280;48016;50.284;18.860;2022-09-23T06:34:29;98631.98;;;12.36;80.37
62057;BME280;48016;50.284;18.860;2022-09-23T06:37:00;98635.14;;;12.60;79.97
62057;BME280;48016;50.284;18.860;2022-09-23T06:39:32;98639.66;;;12.87;79.73
62057;BME280;48016;50.284;18.860;2022-09-23T06:42:03;98634.89;;;13.04;78.79
62057;BME280;48016;50.284;18.860;2022-09-23T06:44:36;98645.86;;;13.20;78.35
62057;BME280;48016;50.284;18.860;2022-09-23T06:47:08;98641.08;;;13.42;78.38
62057;BME280;48016;50.284;18.860;2022-09-23T06:49:39;98640.38;;;13.67;77.51
62057;BME280;48016;50.284;18.860;2022-09-23T06:52:11;98637.14;;;13.75;75.49
62057;BME280;48016;50.284;18.860;2022-09-23T06:54:42;98640.14;;;13.79;76.16
62057;BME280;48016;50.284;18.860;2022-09-23T06:57:13;98638.83;;;13.92;74.40
62057;BME280;48016;50.284;18.860;2022-09-23T06:59:42;98637.98;;;13.91;74.69
62057;BME280;48016;50.284;18.860;2022-09-23T07:02:11;98642.36;;;14.02;74.60
62057;BME280;48016;50.284;18.860;2022-09-23T07:04:41;98630.97;;;14.11;73.90
62057;BME280;48016;50.284;18.860;2022-09-23T07:07:11;98637.52;;;14.15;73.32
62057;BME280;48016;50.284;18.860;2022-09-23T07:09:41;98641.30;;;14.14;72.50
62057;BME280;48016;50.284;18.860;2022-09-23T07:12:11;98636.97;;;14.18;73.33
62057;BME280;48016;50.284;18.860;2022-09-23T07:14:40;98640.24;;;14.30;72.89
62057;BME280;48016;50.284;18.860;2022-09-23T07:17:10;98634.52;;;14.37;72.97
62057;BME280;48016;50.284;18.860;2022-09-23T07:19:39;98633.41;;;14.17;72.20
62057;BME280;48016;50.284;18.860;2022-09-23T07:22:09;98635.84;;;13.98;72.43
62057;BME280;48016;50.284;18.860;2022-09-23T07:24:38;98640.17;;;13.89;71.84
62057;BME280;48016;50.284;18.860;2022-09-23T07:27:08;98639.03;;;13.70;72.58
62057;BME280;48016;50.284;18.860;2022-09-23T07:29:43;98636.36;;;13.80;73.13
62057;BME280;48016;50.284;18.860;2022-09-23T07:32:13;98647.27;;;14.06;73.52
62057;BME280;48016;50.284;18.860;2022-09-23T07:34:43;98641.88;;;14.36;73.31
62057;BME280;48016;50.284;18.860;2022-09-23T07:37:17;98648.97;;;14.63;73.55
62057;BME280;48016;50.284;18.860;2022-09-23T07:39:47;98646.53;;;14.87;73.41
62057;BME280;48016;50.284;18.860;2022-09-23T07:42:18;98650.84;;;14.98;72.59
62057;BME280;48016;50.284;18.860;2022-09-23T07:44:49;98645.39;;;15.08;72.56
62057;BME280;48016;50.284;18.860;2022-09-23T07:47:21;98648.10;;;15.13;72.31
62057;BME280;48016;50.284;18.860;2022-09-23T07:49:53;98651.34;;;15.15;71.83
62057;BME280;48016;50.284;18.860;2022-09-23T07:52:25;98640.49;;;15.05;71.25
62057;BME280;48016;50.284;18.860;2022-09-23T07:54:55;98643.52;;;14.94;71.30
62057;BME280;48016;50.284;18.860;2022-09-23T07:57:25;98646.50;;;14.97;71.42
62057;BME280;48016;50.284;18.860;2022-09-23T07:59:55;98647.30;;;15.08;71.08
62057;BME280;48016;50.284;18.860;2022-09-23T08:02:25;98653.25;;;15.20;71.14
62057;BME280;48016;50.284;18.860;2022-09-23T08:04:58;98645.03;;;15.35;70.46
62057;BME280;48016;50.284;18.860;2022-09-23T08:07:31;98652.09;;;15.42;69.37
62057;BME280;48016;50.284;18.860;2022-09-23T08:10:04;98654.81;;;15.42;69.67
62057;BME280;48016;50.284;18.860;2022-09-23T08:12:37;98649.33;;;15.57;69.64
62057;BME280;48016;50.284;18.860;2022-09-23T08:15:09;98652.30;;;15.60;69.75
62057;BME280;48016;50.284;18.860;2022-09-23T08:17:41;98656.69;;;15.56;69.52
62057;BME280;48016;50.284;18.860;2022-09-23T08:20:12;98649.36;;;15.42;69.03
62057;BME280;48016;50.284;18.860;2022-09-23T08:23:03;98648.60;;;15.31;69.34
62057;BME280;48016;50.284;18.860;2022-09-23T08:25:35;98646.74;;;15.16;69.03
62057;BME280;48016;50.284;18.860;2022-09-23T08:28:07;98651.94;;;14.97;69.13
62057;BME280;48016;50.284;18.860;2022-09-23T08:33:15;98644.23;;;14.86;68.59
62057;BME280;48016;50.284;18.860;2022-09-23T08:35:45;98644.05;;;14.96;69.47
62057;BME280;48016;50.284;18.860;2022-09-23T08:38:15;98641.66;;;14.97;69.42
62057;BME280;48016;50.284;18.860;2022-09-23T08:40:47;98640.41;;;15.15;69.92
62057;BME280;48016;50.284;18.860;2022-09-23T08:43:31;98638.96;;;15.43;69.25
62057;BME280;48016;50.284;18.860;2022-09-23T08:46:05;98639.40;;;15.74;69.24
62057;BME280;48016;50.284;18.860;2022-09-23T08:48:41;98637.71;;;15.85;68.42
62057;BME280;48016;50.284;18.860;2022-09-23T08:51:14;98639.58;;;15.82;67.70
62057;BME280;48016;50.284;18.860;2022-09-23T08:53:48;98642.50;;;15.74;67.15
62057;BME280;48016;50.284;18.860;2022-09-23T08:56:22;98638.66;;;15.64;66.85
62057;BME280;48016;50.284;18.860;2022-09-23T08:59:23;98640.25;;;15.48;66.77
62057;BME280;48016;50.284;18.860;2022-09-23T09:01:59;98634.62;;;15.25;66.46
62057;BME280;48016;50.284;18.860;2022-09-23T09:09:45;98632.80;;;14.78;67.59
62057;BME280;48016;50.284;18.860;2022-09-23T09:12:21;98630.73;;;14.67;67.40
62057;BME280;48016;50.284;18.860;2022-09-23T09:14:58;98632.50;;;14.61;67.08
62057;BME280;48016;50.284;18.860;2022-09-23T09:17:37;98628.89;;;14.50;66.29
62057;BME280;48016;50.284;18.860;2022-09-23T09:25:36;98629.71;;;14.58;65.66
62057;BME280;48016;50.284;18.860;2022-09-23T09:29:02;98627.38;;;14.70;65.95
62057;BME280;48016;50.284;18.860;2022-09-23T09:31:43;98627.17;;;14.95;66.17
62057;BME280;48016;50.284;18.860;2022-09-23T09:34:26;98624.39;;;15.17;65.35
62057;BME280;48016;50.284;18.860;2022-09-23T09:37:17;98618.13;;;15.34;65.95
62057;BME280;48016;50.284;18.860;2022-09-23T09:39:49;98613.84;;;15.30;65.60
62057;BME280;48016;50.284;18.860;2022-09-23T09:42:22;98611.27;;;15.13;65.50
62057;BME280;48016;50.284;18.860;2022-09-23T09:44:56;98607.41;;;14.93;64.35
62057;BME280;48016;50.284;18.860;2022-09-23T09:47:39;98603.00;;;14.72;64.20
62057;BME280;48016;50.284;18.860;2022-09-23T09:50:18;98600.98;;;14.60;63.89
62057;BME280;48016;50.284;18.860;2022-09-23T09:58:48;98595.13;;;14.88;64.37
62057;BME280;48016;50.284;18.860;2022-09-23T10:03:51;98586.23;;;15.10;61.82
62057;BME280;48016;50.284;18.860;2022-09-23T10:06:27;98581.77;;;15.10;60.87
62057;BME280;48016;50.284;18.860;2022-09-23T10:11:36;98581.02;;;15.34;60.44
62057;BME280;48016;50.284;18.860;2022-09-23T10:14:15;98577.45;;;15.28;60.41
62057;BME280;48016;50.284;18.860;2022-09-23T10:17:01;98579.53;;;15.27;59.66
62057;BME280;48016;50.284;18.860;2022-09-23T10:19:34;98583.90;;;15.24;59.50
62057;BME280;48016;50.284;18.860;2022-09-23T10:22:19;98582.08;;;15.16;59.57
62057;BME280;48016;50.284;18.860;2022-09-23T10:24:52;98569.07;;;15.13;60.23
62057;BME280;48016;50.284;18.860;2022-09-23T10:27:28;98565.16;;;15.07;61.05
62057;BME280;48016;50.284;18.860;2022-09-23T10:30:03;98568.67;;;15.17;61.42
62057;BME280;48016;50.284;18.860;2022-09-23T10:32:36;98572.10;;;15.32;60.81
62057;BME280;48016;50.284;18.860;2022-09-23T10:35:14;98569.91;;;15.43;57.61
62057;BME280;48016;50.284;18.860;2022-09-23T10:37:55;98567.50;;;15.47;57.24
62057;BME280;48016;50.284;18.860;2022-09-23T10:40:29;98569.84;;;15.56;58.95
62057;BME280;48016;50.284;18.860;2022-09-23T10:46:27;98566.94;;;15.53;58.33
62057;BME280;48016;50.284;18.860;2022-09-23T10:55:05;98561.16;;;15.41;56.90
62057;BME280;48016;50.284;18.860;2022-09-23T11:00:22;98561.30;;;15.10;56.28
62057;BME280;48016;50.284;18.860;2022-09-23T11:09:17;98551.42;;;14.78;58.34
62057;BME280;48016;50.284;18.860;2022-09-23T11:11:59;98552.77;;;14.63;59.67
62057;BME280;48016;50.284;18.860;2022-09-23T11:31:49;98535.51;;;14.72;57.40
62057;BME280;48016;50.284;18.860;2022-09-23T11:39:50;98529.51;;;14.74;56.97
62057;BME280;48016;50.284;18.860;2022-09-23T11:42:25;98527.70;;;14.77;57.54
62057;BME280;48016;50.284;18.860;2022-09-23T11:45:07;98531.48;;;14.85;56.81
62057;BME280;48016;50.284;18.860;2022-09-23T11:48:13;98527.86;;;14.93;56.29
62057;BME280;48016;50.284;18.860;2022-09-23T11:51:09;98524.79;;;14.88;55.67
62057;BME280;48016;50.284;18.860;2022-09-23T11:53:47;98518.12;;;14.77;54.32
62057;BME280;48016;50.284;18.860;2022-09-23T11:56:22;98514.79;;;14.82;54.47
62057;BME280;48016;50.284;18.860;2022-09-23T12:01:50;98505.73;;;15.13;54.97
62057;BME280;48016;50.284;18.860;2022-09-23T12:04:30;98503.97;;;15.28;55.41
62057;BME280;48016;50.284;18.860;2022-09-23T12:07:23;98501.48;;;15.43;54.66
62057;BME280;48016;50.284;18.860;2022-09-23T12:10:03;98498.23;;;15.59;54.13
62057;BME280;48016;50.284;18.860;2022-09-23T12:21:34;98488.38;;;16.04;52.49
62057;BME280;48016;50.284;18.860;2022-09-23T12:24:23;98487.75;;;16.15;51.68
62057;BME280;48016;50.284;18.860;2022-09-23T12:26:59;98482.23;;;16.25;50.92
62057;BME280;48016;50.284;18.860;2022-09-23T12:29:29;98479.44;;;16.34;50.66
62057;BME280;48016;50.284;18.860;2022-09-23T12:32:01;98478.85;;;16.37;49.62
62057;BME280;48016;50.284;18.860;2022-09-23T12:34:38;98475.59;;;16.42;49.78
62057;BME280;48016;50.284;18.860;2022-09-23T12:37:06;98464.40;;;16.41;48.81
62057;BME280;48016;50.284;18.860;2022-09-23T12:39:37;98462.11;;;16.37;49.09
62057;BME280;48016;50.284;18.860;2022-09-23T12:42:15;98462.16;;;16.24;48.60
62057;BME280;48016;50.284;18.860;2022-09-23T12:44:47;98461.02;;;16.14;49.76
62057;BME280;48016;50.284;18.860;2022-09-23T12:47:28;98460.16;;;16.00;49.83
62057;BME280;48016;50.284;18.860;2022-09-23T12:49:56;98454.27;;;15.87;50.27
62057;BME280;48016;50.284;18.860;2022-09-23T12:52:28;98455.77;;;15.78;51.10
62057;BME280;48016;50.284;18.860;2022-09-23T12:57:51;98450.51;;;15.63;51.69
62057;BME280;48016;50.284;18.860;2022-09-23T13:00:25;98447.36;;;15.55;51.66
62057;BME280;48016;50.284;18.860;2022-09-23T13:02:57;98448.34;;;15.46;51.54
62057;BME280;48016;50.284;18.860;2022-09-23T13:05:55;98448.84;;;15.38;52.05
62057;BME280;48016;50.284;18.860;2022-09-23T13:08:46;98449.65;;;15.29;52.68
62057;BME280;48016;50.284;18.860;2022-09-23T13:11:28;98445.48;;;15.25;52.44
62057;BME280;48016;50.284;18.860;2022-09-23T13:14:02;98444.61;;;15.26;51.57
62057;BME280;48016;50.284;18.860;2022-09-23T13:16:50;98438.52;;;15.24;51.32
62057;BME280;48016;50.284;18.860;2022-09-23T13:27:10;98431.30;;;14.80;53.19
62057;BME280;48016;50.284;18.860;2022-09-23T13:32:32;98424.98;;;14.38;53.57
62057;BME280;48016;50.284;18.860;2022-09-23T13:35:13;98423.84;;;14.22;53.87
62057;BME280;48016;50.284;18.860;2022-09-23T13:37:48;98418.77;;;14.02;54.32
62057;BME280;48016;50.284;18.860;2022-09-23T13:40:24;98414.98;;;13.89;54.84
62057;BME280;48016;50.284;18.860;2022-09-23T13:45:25;98405.52;;;13.75;55.25
62057;BME280;48016;50.284;18.860;2022-09-23T13:48:05;98405.86;;;13.68;55.51
62057;BME280;48016;50.284;18.860;2022-09-23T13:50:37;98408.64;;;13.64;55.04
62057;BME280;48016;50.284;18.860;2022-09-23T13:53:25;98407.92;;;13.56;55.10
62057;BME280;48016;50.284;18.860;2022-09-23T13:56:23;98401.36;;;13.52;55.08
62057;BME280;48016;50.284;18.860;2022-09-23T13:58:53;98402.55;;;13.53;55.69
62057;BME280;48016;50.284;18.860;2022-09-23T14:04:00;98399.23;;;13.60;55.91
62057;BME280;48016;50.284;18.860;2022-09-23T14:06:31;98390.60;;;13.62;55.68
62057;BME280;48016;50.284;18.860;2022-09-23T14:09:05;98385.83;;;13.63;55.07
62057;BME280;48016;50.284;18.860;2022-09-23T14:11:35;98385.00;;;13.64;55.51
62057;BME280;48016;50.284;18.860;2022-09-23T14:14:05;98381.27;;;13.68;55.41
62057;BME280;48016;50.284;18.860;2022-09-23T14:16:38;98378.80;;;13.71;55.27
62057;BME280;48016;50.284;18.860;2022-09-23T14:19:16;98380.00;;;13.72;54.87
62057;BME280;48016;50.284;18.860;2022-09-23T14:21:46;98382.92;;;13.75;54.78
62057;BME280;48016;50.284;18.860;2022-09-23T14:24:31;98380.33;;;13.75;54.75
62057;BME280;48016;50.284;18.860;2022-09-23T14:29:39;98383.79;;;13.75;54.84
62057;BME280;48016;50.284;18.860;2022-09-23T14:32:13;98386.79;;;13.72;55.30
62057;BME280;48016;50.284;18.860;2022-09-23T14:40:27;98387.17;;;13.57;55.93
62057;BME280;48016;50.284;18.860;2022-09-23T14:43:05;98383.52;;;13.51;56.43
62057;BME280;48016;50.284;18.860;2022-09-23T14:45:38;98379.95;;;13.45;56.81
62057;BME280;48016;50.284;18.860;2022-09-23T14:48:22;98379.52;;;13.39;58.38
62057;BME280;48016;50.284;18.860;2022-09-23T14:50:58;98380.05;;;13.30;59.34
62057;BME280;48016;50.284;18.860;2022-09-23T14:56:10;98371.33;;;13.10;60.29
62057;BME280;48016;50.284;18.860;2022-09-23T14:58:52;98370.60;;;13.02;60.68
62057;BME280;48016;50.284;18.860;2022-09-23T15:01:32;98367.42;;;12.91;61.31
62057;BME280;48016;50.284;18.860;2022-09-23T15:04:23;98363.60;;;12.80;61.83
62057;BME280;48016;50.284;18.860;2022-09-23T15:07:03;98370.25;;;12.69;62.55
62057;BME280;48016;50.284;18.860;2022-09-23T15:09:39;98362.90;;;12.59;62.85
62057;BME280;48016;50.284;18.860;2022-09-23T15:12:14;98370.08;;;12.49;63.31
62057;BME280;48016;50.284;18.860;2022-09-23T15:14:44;98368.25;;;12.39;63.59
62057;BME280;48016;50.284;18.860;2022-09-23T15:20:02;98370.28;;;12.19;64.57
62057;BME280;48016;50.284;18.860;2022-09-23T15:22:29;98368.71;;;12.11;64.82
62057;BME280;48016;50.284;18.860;2022-09-23T15:25:38;98369.70;;;12.04;65.20
62057;BME280;48016;50.284;18.860;2022-09-23T15:30:39;98369.95;;;11.90;65.77
62057;BME280;48016;50.284;18.860;2022-09-23T15:33:11;98367.36;;;11.85;66.11
62057;BME280;48016;50.284;18.860;2022-09-23T15:35:45;98363.39;;;11.78;66.84
62057;BME280;48016;50.284;18.860;2022-09-23T15:38:15;98358.80;;;11.71;66.70
62057;BME280;48016;50.284;18.860;2022-09-23T15:40:46;98358.43;;;11.64;67.34
62057;BME280;48016;50.284;18.860;2022-09-23T15:43:21;98353.34;;;11.56;67.28
62057;BME280;48016;50.284;18.860;2022-09-23T15:45:55;98351.66;;;11.50;67.75
62057;BME280;48016;50.284;18.860;2022-09-23T15:48:30;98355.73;;;11.44;67.78
62057;BME280;48016;50.284;18.860;2022-09-23T15:51:05;98351.36;;;11.40;68.01
62057;BME280;48016;50.284;18.860;2022-09-23T15:53:36;98351.89;;;11.36;68.35
62057;BME280;48016;50.284;18.860;2022-09-23T15:56:06;98352.73;;;11.33;68.24
62057;BME280;48016;50.284;18.860;2022-09-23T15:58:36;98349.23;;;11.29;68.65
62057;BME280;48016;50.284;18.860;2022-09-23T16:01:05;98349.30;;;11.25;68.89
62057;BME280;48016;50.284;18.860;2022-09-23T16:03:36;98346.27;;;11.20;69.04
62057;BME280;48016;50.284;18.860;2022-09-23T16:06:10;98349.55;;;11.16;69.34
62057;BME280;48016;50.284;18.860;2022-09-23T16:08:41;98347.52;;;11.13;69.67
62057;BME280;48016;50.284;18.860;2022-09-23T16:11:20;98349.18;;;11.11;69.91
62057;BME280;48016;50.284;18.860;2022-09-23T16:13:52;98346.22;;;11.07;70.08
62057;BME280;48016;50.284;18.860;2022-09-23T16:16:22;98345.89;;;11.01;70.24
62057;BME280;48016;50.284;18.860;2022-09-23T16:18:52;98345.35;;;10.95;70.25
62057;BME280;48016;50.284;18.860;2022-09-23T16:21:26;98343.61;;;10.89;70.13